createdAt,value
2022-08-16T00:00:48.370Z,3041
2022-08-16T00:01:41.762Z,3039
2022-08-16T00:02:41.613Z,3029
2022-08-16T00:03:41.604Z,3029
2022-08-16T00:05:00.051Z,3056
2022-08-16T00:05:48.367Z,3068
2022-08-16T00:06:41.577Z,3036
2022-08-16T00:07:41.565Z,3026
2022-08-16T00:08:45.934Z,3046
2022-08-16T00:09:41.820Z,3017
2022-08-16T00:10:44.119Z,3044
2022-08-16T00:11:41.993Z,3066
2022-08-16T00:12:41.543Z,3022
2022-08-16T00:13:42.502Z,3036
2022-08-16T00:14:43.911Z,3061
2022-08-16T00:15:51.919Z,3026
2022-08-16T00:17:01.435Z,3034
2022-08-16T00:17:56.258Z,3019
2022-08-16T00:18:48.931Z,3036
2022-08-16T00:19:42.231Z,3039
2022-08-16T00:20:45.569Z,3071
2022-08-16T00:21:41.570Z,3088
2022-08-16T00:22:42.793Z,3080
2022-08-16T00:23:46.299Z,3071
2022-08-16T00:24:41.551Z,3090
2022-08-16T00:26:35.904Z,3132
2022-08-16T00:26:45.283Z,3085
2022-08-16T00:27:41.571Z,3076
2022-08-16T00:28:44.050Z,3066
2022-08-16T00:29:41.517Z,3122
2022-08-16T00:30:41.530Z,3073
2022-08-16T00:31:58.664Z,3134
2022-08-16T00:32:49.247Z,3076
2022-08-16T00:33:41.523Z,3071
2022-08-16T00:34:53.040Z,3041
2022-08-16T00:35:41.553Z,3063
2022-08-16T00:36:47.310Z,3076
2022-08-16T00:38:44.194Z,3056
2022-08-16T00:39:41.634Z,3061
2022-08-16T00:40:43.847Z,3063
2022-08-16T00:41:41.517Z,3056
2022-08-16T00:42:41.595Z,3076
2022-08-16T00:43:46.726Z,3076
2022-08-16T00:44:44.021Z,3046
2022-08-16T00:46:00.306Z,3036
2022-08-16T00:46:53.003Z,3058
2022-08-16T00:47:49.092Z,3049
2022-08-16T00:48:45.444Z,3044
2022-08-16T00:49:44.805Z,3056
2022-08-16T00:50:41.549Z,3046
2022-08-16T00:51:41.555Z,3039
2022-08-16T00:52:45.959Z,3044
2022-08-16T00:53:41.557Z,3049
2022-08-16T00:54:41.503Z,3029
2022-08-16T00:55:41.505Z,3009
2022-08-16T00:56:57.050Z,3007
2022-08-16T00:57:59.939Z,3019
2022-08-16T00:58:41.594Z,3022
2022-08-16T00:59:54.752Z,2987
2022-08-16T01:00:41.991Z,2987
2022-08-16T01:01:44.173Z,3068
2022-08-16T01:02:41.536Z,3026
2022-08-16T01:03:41.906Z,3031
2022-08-16T01:04:41.520Z,3012
2022-08-16T01:05:43.881Z,2977
2022-08-16T01:06:49.223Z,2995
2022-08-16T01:07:52.049Z,3085
2022-08-16T01:08:56.849Z,3007
2022-08-16T01:09:50.100Z,3039
2022-08-16T01:10:41.472Z,3098
2022-08-16T01:11:54.091Z,3049
2022-08-16T01:12:44.107Z,3061
2022-08-16T01:13:41.474Z,3026
2022-08-16T01:14:41.494Z,3041
2022-08-16T01:15:43.106Z,3036
2022-08-16T01:16:43.911Z,3031
2022-08-16T01:17:42.163Z,3017
2022-08-16T01:18:44.201Z,3039
2022-08-16T01:19:41.857Z,3012
2022-08-16T01:20:41.617Z,3034
2022-08-16T01:21:41.526Z,3039
2022-08-16T01:22:48.280Z,3019
2022-08-16T01:24:00.807Z,3034
2022-08-16T01:24:54.095Z,3036
2022-08-16T01:25:41.518Z,3046
2022-08-16T01:27:41.491Z,3041
2022-08-16T01:28:45.502Z,2999
2022-08-16T01:29:57.892Z,3068
2022-08-16T01:30:50.466Z,3002
2022-08-16T01:31:42.804Z,3041
2022-08-16T01:32:46.690Z,3039
2022-08-16T01:33:44.688Z,3036
2022-08-16T01:34:47.045Z,3058
2022-08-16T01:35:41.457Z,2995
2022-08-16T01:36:41.873Z,2985
2022-08-16T01:37:42.384Z,3002
2022-08-16T01:38:46.887Z,2982
2022-08-16T01:39:41.523Z,3034
2022-08-16T01:40:41.505Z,2980
2022-08-16T01:41:44.280Z,3014
2022-08-16T01:42:42.403Z,2958
2022-08-16T01:43:44.506Z,2987
2022-08-16T01:44:41.498Z,2928
2022-08-16T01:45:44.820Z,2997
2022-08-16T01:47:49.463Z,2948
2022-08-16T01:48:43.704Z,2955
2022-08-16T01:50:42.483Z,2933
2022-08-16T01:51:16.224Z,2960
2022-08-16T01:51:41.845Z,2921
2022-08-16T01:52:46.537Z,2928
2022-08-16T01:53:41.990Z,2921
2022-08-16T01:54:48.809Z,2968
2022-08-16T01:55:53.673Z,2928
2022-08-16T01:56:51.525Z,2899
2022-08-16T01:57:53.787Z,2894
2022-08-16T01:58:47.996Z,2926
2022-08-16T01:59:41.465Z,2891
2022-08-16T02:00:49.270Z,2884
2022-08-16T02:01:41.449Z,2882
2022-08-16T02:02:43.937Z,2889
2022-08-16T02:04:10.844Z,2899
2022-08-16T02:04:54.565Z,2845
2022-08-16T02:05:46.822Z,2877
2022-08-16T02:06:46.910Z,2862
2022-08-16T02:07:44.137Z,2923
2022-08-16T02:08:44.070Z,2860
2022-08-16T02:09:43.872Z,2860
2022-08-16T02:10:48.231Z,2838
2022-08-16T02:11:47.943Z,2857
2022-08-16T02:12:51.285Z,2847
2022-08-16T02:13:41.719Z,2835
2022-08-16T02:14:41.454Z,2914
2022-08-16T02:15:43.845Z,2860
2022-08-16T02:16:44.113Z,2887
2022-08-16T02:17:41.410Z,2850
2022-08-16T02:18:44.003Z,2835
2022-08-16T02:19:58.922Z,2820
2022-08-16T02:20:45.512Z,2864
2022-08-16T02:22:09.052Z,2847
2022-08-16T02:22:43.446Z,2857
2022-08-16T02:23:43.757Z,2813
2022-08-16T02:24:42.228Z,2842
2022-08-16T02:25:50.926Z,2941
2022-08-16T02:26:43.629Z,2813
2022-08-16T02:27:41.477Z,2864
2022-08-16T02:28:47.223Z,2847
2022-08-16T02:30:47.632Z,2823
2022-08-16T02:32:04.110Z,2788
2022-08-16T02:32:50.397Z,2855
2022-08-16T02:33:50.636Z,2864
2022-08-16T02:34:41.411Z,2791
2022-08-16T02:35:53.986Z,2850
2022-08-16T02:36:49.758Z,2828
2022-08-16T02:37:52.619Z,2788
2022-08-16T02:38:43.956Z,2818
2022-08-16T02:39:44.652Z,2838
2022-08-16T02:40:44.514Z,2862
2022-08-16T02:41:41.486Z,2808
2022-08-16T02:42:49.686Z,2818
2022-08-16T02:43:44.088Z,2852
2022-08-16T02:44:46.510Z,2845
2022-08-16T02:45:43.942Z,2801
2022-08-16T02:46:41.393Z,2781
2022-08-16T02:48:00.679Z,2759
2022-08-16T02:48:47.449Z,2771
2022-08-16T02:50:55.296Z,2779
2022-08-16T02:51:43.462Z,2766
2022-08-16T02:53:41.427Z,2793
2022-08-16T02:54:41.409Z,2761
2022-08-16T02:55:43.880Z,2788
2022-08-16T02:56:41.400Z,2786
2022-08-16T02:57:54.299Z,2754
2022-08-16T02:58:41.371Z,2742
2022-08-16T02:59:41.666Z,2820
2022-08-16T03:00:45.350Z,2791
2022-08-16T03:01:43.759Z,2784
2022-08-16T03:02:44.312Z,2793
2022-08-16T03:04:39.792Z,2813
2022-08-16T03:04:52.541Z,2850
2022-08-16T03:05:41.444Z,2791
2022-08-16T03:06:43.134Z,2786
2022-08-16T03:07:41.365Z,2779
2022-08-16T03:08:51.801Z,2771
2022-08-16T03:09:41.385Z,2754
2022-08-16T03:10:59.144Z,2747
2022-08-16T03:11:41.363Z,2776
2022-08-16T03:12:55.093Z,2776
2022-08-16T03:13:41.362Z,2749
2022-08-16T03:14:42.739Z,2774
2022-08-16T03:15:41.348Z,2764
2022-08-16T03:16:59.461Z,2737
2022-08-16T03:17:53.546Z,2759
2022-08-16T03:18:42.804Z,2730
2022-08-16T03:19:56.550Z,2769
2022-08-16T03:21:41.414Z,2774
2022-08-16T03:22:45.327Z,2749
2022-08-16T03:23:41.394Z,2774
2022-08-16T03:24:44.718Z,2771
2022-08-16T03:25:44.657Z,2830
2022-08-16T03:26:43.618Z,2965
2022-08-16T03:27:41.356Z,2840
2022-08-16T03:28:41.465Z,2938
2022-08-16T03:29:42.759Z,2926
2022-08-16T03:30:44.064Z,2985
2022-08-16T03:31:41.350Z,3044
2022-08-16T03:32:41.313Z,3026
2022-08-16T03:33:44.159Z,3007
2022-08-16T03:34:49.897Z,3024
2022-08-16T03:35:43.990Z,3029
2022-08-16T03:36:41.333Z,3063
2022-08-16T03:38:01.707Z,3034
2022-08-16T03:38:41.661Z,3031
2022-08-16T03:39:44.394Z,3049
2022-08-16T03:40:41.347Z,2990
2022-08-16T03:41:50.162Z,2972
2022-08-16T03:43:18.632Z,2958
2022-08-16T03:43:51.242Z,2975
2022-08-16T03:45:41.443Z,2987
2022-08-16T03:46:47.798Z,3046
2022-08-16T03:47:44.230Z,2972
2022-08-16T03:48:41.383Z,3007
2022-08-16T03:49:41.310Z,2995
2022-08-16T03:50:41.363Z,3012
2022-08-16T03:51:41.313Z,2909
2022-08-16T03:52:43.710Z,2899
2022-08-16T03:53:41.612Z,2953
2022-08-16T03:54:53.275Z,2926
2022-08-16T03:56:56.631Z,2928
2022-08-16T03:57:41.301Z,2955
2022-08-16T03:58:41.291Z,2948
2022-08-16T03:59:43.577Z,2891
2022-08-16T04:00:44.441Z,2918
2022-08-16T04:01:43.764Z,2914
2022-08-16T04:02:41.299Z,2909
2022-08-16T04:03:41.300Z,2860
2022-08-16T04:04:46.425Z,2926
2022-08-16T04:05:46.937Z,2975
2022-08-16T04:07:44.199Z,2972
2022-08-16T04:08:41.294Z,3071
2022-08-16T04:09:44.381Z,3073
2022-08-16T04:10:41.263Z,3071
2022-08-16T04:11:41.364Z,3093
2022-08-16T04:12:54.282Z,3031
2022-08-16T04:14:00.334Z,2997
2022-08-16T04:14:46.840Z,2960
2022-08-16T04:15:46.549Z,3093
2022-08-16T04:16:41.311Z,3130
2022-08-16T04:17:41.291Z,3095
2022-08-16T04:18:43.787Z,3073
2022-08-16T04:19:45.390Z,3066
2022-08-16T04:20:41.351Z,3026
2022-08-16T04:21:47.362Z,3022
2022-08-16T04:22:44.099Z,3083
2022-08-16T04:23:41.271Z,3107
2022-08-16T04:24:43.592Z,3122
2022-08-16T04:25:41.304Z,3164
2022-08-16T04:26:45.897Z,3093
2022-08-16T04:27:41.270Z,3102
2022-08-16T04:28:55.743Z,3080
2022-08-16T04:29:46.631Z,3076
2022-08-16T04:30:44.226Z,3095
2022-08-16T04:31:43.764Z,3110
2022-08-16T04:32:41.347Z,3112
2022-08-16T04:33:50.702Z,3100
2022-08-16T04:34:41.263Z,3098
2022-08-16T04:35:41.649Z,3100
2022-08-16T04:36:41.358Z,3061
2022-08-16T04:37:42.202Z,3083
2022-08-16T04:38:44.416Z,3031
2022-08-16T04:39:47.004Z,3078
2022-08-16T04:40:42.375Z,3058
2022-08-16T04:41:41.274Z,3063
2022-08-16T04:42:41.322Z,3029
2022-08-16T04:43:43.670Z,3053
2022-08-16T04:44:53.937Z,3061
2022-08-16T04:45:44.240Z,3098
2022-08-16T04:47:01.056Z,3117
2022-08-16T04:47:41.283Z,3100
2022-08-16T04:48:43.727Z,3115
2022-08-16T04:49:45.757Z,3100
2022-08-16T04:50:43.480Z,3134
2022-08-16T04:51:44.283Z,3169
2022-08-16T04:52:41.389Z,3152
2022-08-16T04:53:41.626Z,3188
2022-08-16T04:54:43.228Z,3149
2022-08-16T04:55:43.706Z,3181
2022-08-16T04:56:46.291Z,3149
2022-08-16T04:57:53.450Z,3157
2022-08-16T04:58:46.009Z,3179
2022-08-16T04:59:41.254Z,3171
2022-08-16T05:00:41.321Z,3211
2022-08-16T05:01:57.557Z,3240
2022-08-16T05:02:42.880Z,3284
2022-08-16T05:03:41.731Z,3314
2022-08-16T05:04:41.225Z,3282
2022-08-16T05:05:55.595Z,3277
2022-08-16T05:06:45.231Z,3311
2022-08-16T05:07:58.439Z,3264
2022-08-16T05:08:47.307Z,3306
2022-08-16T05:09:45.171Z,3296
2022-08-16T05:10:41.262Z,3304
2022-08-16T05:12:44.806Z,3370
2022-08-16T05:13:42.614Z,3350
2022-08-16T05:14:46.275Z,3372
2022-08-16T05:15:41.301Z,3370
2022-08-16T05:16:43.585Z,3348
2022-08-16T05:17:41.250Z,3355
2022-08-16T05:18:43.261Z,3358
2022-08-16T05:19:41.260Z,3341
2022-08-16T05:21:44.031Z,3328
2022-08-16T05:23:47.843Z,3345
2022-08-16T05:24:43.839Z,3291
2022-08-16T05:25:48.741Z,3299
2022-08-16T05:26:51.217Z,3331
2022-08-16T05:27:43.138Z,3328
2022-08-16T05:28:41.285Z,3331
2022-08-16T05:29:57.490Z,3358
2022-08-16T05:30:41.243Z,3360
2022-08-16T05:31:48.063Z,3360
2022-08-16T05:32:45.856Z,3368
2022-08-16T05:33:42.256Z,3382
2022-08-16T05:34:41.440Z,3375
2022-08-16T05:35:44.239Z,3397
2022-08-16T05:36:41.251Z,3409
2022-08-16T05:37:41.203Z,3429
2022-08-16T05:38:41.262Z,3429
2022-08-16T05:39:41.229Z,3434
2022-08-16T05:40:41.251Z,3466
2022-08-16T05:41:45.260Z,3549
2022-08-16T05:42:41.522Z,3588
2022-08-16T05:44:44.264Z,3630
2022-08-16T05:45:41.272Z,3608
2022-08-16T05:46:43.563Z,3593
2022-08-16T05:47:43.233Z,3623
2022-08-16T05:48:41.230Z,3588
2022-08-16T05:49:44.014Z,3559
2022-08-16T05:50:41.663Z,3566
2022-08-16T05:51:41.587Z,3554
2022-08-16T05:52:44.986Z,3569
2022-08-16T05:53:43.930Z,3549
2022-08-16T05:55:02.047Z,3537
2022-08-16T05:56:41.181Z,3566
2022-08-16T05:57:41.943Z,3581
2022-08-16T05:58:41.188Z,3569
2022-08-16T05:59:43.747Z,3547
2022-08-16T06:00:49.597Z,3620
2022-08-16T06:01:41.233Z,3625
2022-08-16T06:02:41.293Z,3628
2022-08-16T06:03:43.591Z,3586
2022-08-16T06:04:42.320Z,3601
2022-08-16T06:06:41.195Z,3596
2022-08-16T06:07:43.441Z,3586
2022-08-16T06:08:42.119Z,3588
2022-08-16T06:09:46.634Z,3598
2022-08-16T06:11:10.466Z,3601
2022-08-16T06:11:43.132Z,3576
2022-08-16T06:12:41.237Z,3586
2022-08-16T06:13:42.370Z,3628
2022-08-16T06:14:58.415Z,3640
2022-08-16T06:15:41.554Z,3628
2022-08-16T06:16:41.184Z,3628
2022-08-16T06:17:44.520Z,3566
2022-08-16T06:18:41.210Z,3564
2022-08-16T06:19:44.625Z,3608
2022-08-16T06:20:55.080Z,3554
2022-08-16T06:21:46.169Z,3522
2022-08-16T06:22:44.642Z,3527
2022-08-16T06:24:53.520Z,3525
2022-08-16T06:24:54.155Z,3554
2022-08-16T06:25:41.160Z,3576
2022-08-16T06:26:57.906Z,3591
2022-08-16T06:27:41.171Z,3571
2022-08-16T06:28:41.159Z,3554
2022-08-16T06:29:41.226Z,3539
2022-08-16T06:31:50.601Z,3529
2022-08-16T06:33:58.581Z,3603
2022-08-16T06:34:57.204Z,3642
2022-08-16T06:35:46.172Z,3657
2022-08-16T06:36:43.604Z,3615
2022-08-16T06:37:42.968Z,3630
2022-08-16T06:38:58.476Z,3615
2022-08-16T06:39:49.700Z,3593
2022-08-16T06:40:41.161Z,3598
2022-08-16T06:41:43.822Z,3628
2022-08-16T06:42:47.869Z,3647
2022-08-16T06:43:41.171Z,3569
2022-08-16T06:44:43.801Z,3569
2022-08-16T06:45:43.244Z,3603
2022-08-16T06:46:43.446Z,3652
2022-08-16T06:47:56.123Z,3606
2022-08-16T06:48:42.664Z,3593
2022-08-16T06:49:41.165Z,3588
2022-08-16T06:50:43.547Z,3593
2022-08-16T06:51:46.448Z,3618
2022-08-16T06:53:41.126Z,3623
2022-08-16T06:54:41.230Z,3606
2022-08-16T06:55:43.737Z,3618
2022-08-16T06:56:43.492Z,3615
2022-08-16T06:57:43.935Z,3603
2022-08-16T06:58:48.347Z,3601
2022-08-16T06:59:52.261Z,3586
2022-08-16T07:00:44.364Z,3630
2022-08-16T07:01:45.045Z,3613
2022-08-16T07:02:41.155Z,3630
2022-08-16T07:03:54.477Z,3623
2022-08-16T07:04:43.513Z,3591
2022-08-16T07:05:58.569Z,3579
2022-08-16T07:06:43.089Z,3566
2022-08-16T07:08:41.099Z,3586
2022-08-16T07:09:41.137Z,3569
2022-08-16T07:10:41.716Z,3571
2022-08-16T07:12:47.500Z,3549
2022-08-16T07:14:00.416Z,3559
2022-08-16T07:14:46.159Z,3515
2022-08-16T07:15:50.559Z,3544
2022-08-16T07:17:41.372Z,3750
2022-08-16T07:18:58.991Z,3728
2022-08-16T07:20:30.363Z,3740
2022-08-16T07:20:48.622Z,3785
2022-08-16T07:21:46.422Z,3733
2022-08-16T07:22:41.103Z,3743
2022-08-16T07:23:43.935Z,3768
2022-08-16T07:24:45.761Z,3699
2022-08-16T07:25:41.083Z,3682
2022-08-16T07:26:41.099Z,3672
2022-08-16T07:27:41.075Z,3687
2022-08-16T07:28:46.238Z,3711
2022-08-16T07:29:41.064Z,3716
2022-08-16T07:30:46.613Z,3748
2022-08-16T07:31:43.979Z,3728
2022-08-16T07:32:43.262Z,3691
2022-08-16T07:33:51.725Z,3704
2022-08-16T07:34:48.977Z,3640
2022-08-16T07:35:44.048Z,3586
2022-08-16T07:36:45.118Z,3552
2022-08-16T07:37:43.672Z,3542
2022-08-16T07:38:41.060Z,3539
2022-08-16T07:39:43.703Z,3527
2022-08-16T07:40:59.789Z,3527
2022-08-16T07:41:46.663Z,3480
2022-08-16T07:42:41.102Z,3500
2022-08-16T07:43:43.502Z,3490
2022-08-16T07:44:50.209Z,3461
2022-08-16T07:45:43.180Z,3453
2022-08-16T07:46:41.029Z,3419
2022-08-16T07:47:41.946Z,3422
2022-08-16T07:48:43.573Z,3407
2022-08-16T07:49:57.858Z,3363
2022-08-16T07:50:56.240Z,3370
2022-08-16T07:51:46.878Z,3360
2022-08-16T07:52:43.157Z,3338
2022-08-16T07:54:45.858Z,3380
2022-08-16T07:55:45.942Z,3414
2022-08-16T07:56:43.725Z,3441
2022-08-16T07:57:58.035Z,3493
2022-08-16T07:58:41.088Z,3532
2022-08-16T08:00:04.476Z,3520
2022-08-16T08:00:41.127Z,3520
2022-08-16T08:01:41.045Z,3547
2022-08-16T08:02:41.148Z,3623
2022-08-16T08:03:49.260Z,3760
2022-08-16T08:04:46.218Z,3532
2022-08-16T08:05:44.098Z,3539
2022-08-16T08:06:44.023Z,3502
2022-08-16T08:09:01.714Z,3500
2022-08-16T08:09:43.542Z,3525
2022-08-16T08:10:43.311Z,3505
2022-08-16T08:11:41.035Z,3537
2022-08-16T08:12:41.200Z,3527
2022-08-16T08:13:42.273Z,3520
2022-08-16T08:14:41.039Z,3446
2022-08-16T08:16:45.543Z,3372
2022-08-16T08:17:43.217Z,3360
2022-08-16T08:18:41.013Z,3353
2022-08-16T08:19:53.182Z,3350
2022-08-16T08:20:41.040Z,3368
2022-08-16T08:22:00.585Z,3363
2022-08-16T08:22:41.598Z,3375
2022-08-16T08:23:42.467Z,3304
2022-08-16T08:24:44.143Z,3294
2022-08-16T08:25:54.263Z,3291
2022-08-16T08:26:43.223Z,3287
2022-08-16T08:27:41.057Z,3262
2022-08-16T08:28:41.057Z,3230
2022-08-16T08:29:42.568Z,3252
2022-08-16T08:30:57.132Z,3176
2022-08-16T08:31:41.073Z,3169
2022-08-16T08:32:58.421Z,3183
2022-08-16T08:33:47.115Z,3188
2022-08-16T08:34:40.981Z,3223
2022-08-16T08:35:43.065Z,3306
2022-08-16T08:36:44.062Z,3333
2022-08-16T08:37:55.579Z,3392
2022-08-16T08:38:45.717Z,3331
2022-08-16T08:39:53.362Z,3353
2022-08-16T08:40:41.007Z,3377
2022-08-16T08:41:41.024Z,3395
2022-08-16T08:42:41.127Z,3495
2022-08-16T08:43:41.554Z,3424
2022-08-16T08:44:40.986Z,3436
2022-08-16T08:45:47.151Z,3466
2022-08-16T08:46:41.013Z,3463
2022-08-16T08:47:43.189Z,3498
2022-08-16T08:48:43.805Z,3466
2022-08-16T08:49:55.045Z,3532
2022-08-16T08:50:50.202Z,3608
2022-08-16T08:51:41.325Z,3581
2022-08-16T08:52:43.640Z,3544
2022-08-16T08:53:41.002Z,3770
2022-08-16T08:54:43.126Z,3488
2022-08-16T08:55:46.044Z,3473
2022-08-16T08:56:45.736Z,3451
2022-08-16T08:58:41.026Z,3431
2022-08-16T08:59:43.399Z,3402
2022-08-16T09:01:16.809Z,3338
2022-08-16T09:01:56.571Z,3296
2022-08-16T09:02:41.445Z,3277
2022-08-16T09:03:43.107Z,3306
2022-08-16T09:04:40.987Z,3323
2022-08-16T09:05:40.973Z,3287
2022-08-16T09:06:43.906Z,3294
2022-08-16T09:08:00.902Z,3304
2022-08-16T09:08:47.302Z,3304
2022-08-16T09:09:41.390Z,3301
2022-08-16T09:10:41.060Z,3370
2022-08-16T09:11:51.103Z,3395
2022-08-16T09:12:41.094Z,3363
2022-08-16T09:13:47.103Z,3365
2022-08-16T09:14:49.680Z,3341
2022-08-16T09:15:40.961Z,3380
2022-08-16T09:17:01.329Z,3363
2022-08-16T09:17:51.709Z,3368
2022-08-16T09:18:41.092Z,3341
2022-08-16T09:19:43.945Z,3328
2022-08-16T09:20:58.370Z,3304
2022-08-16T09:21:40.943Z,3407
2022-08-16T09:22:51.642Z,3456
2022-08-16T09:23:40.964Z,3591
2022-08-16T09:24:52.336Z,3507
2022-08-16T09:25:41.360Z,3559
2022-08-16T09:26:44.574Z,3564
2022-08-16T09:27:57.272Z,3588
2022-08-16T09:29:14.505Z,3576
2022-08-16T09:29:45.224Z,3556
2022-08-16T09:30:43.319Z,3566
2022-08-16T09:31:58.671Z,3559
2022-08-16T09:32:46.940Z,3579
2022-08-16T09:33:41.287Z,3601
2022-08-16T09:34:40.926Z,3583
2022-08-16T09:35:42.822Z,3576
2022-08-16T09:36:46.224Z,3591
2022-08-16T09:37:40.900Z,3507
2022-08-16T09:38:48.178Z,3478
2022-08-16T09:39:42.711Z,3458
2022-08-16T09:41:41.353Z,3495
2022-08-16T09:42:56.008Z,3510
2022-08-16T09:43:58.009Z,3495
2022-08-16T09:45:10.644Z,3498
2022-08-16T09:45:43.171Z,3466
2022-08-16T09:46:48.661Z,3417
2022-08-16T09:47:57.013Z,3385
2022-08-16T09:48:44.790Z,3368
2022-08-16T09:49:43.728Z,3336
2022-08-16T09:50:40.909Z,3321
2022-08-16T09:51:43.089Z,3299
2022-08-16T09:52:47.949Z,3360
2022-08-16T09:53:40.931Z,3382
2022-08-16T09:54:44.460Z,3377
2022-08-16T09:55:44.200Z,3365
2022-08-16T09:56:52.564Z,3353
2022-08-16T09:57:43.987Z,3392
2022-08-16T09:59:05.651Z,3360
2022-08-16T09:59:42.069Z,3358
2022-08-16T10:00:44.844Z,3409
2022-08-16T10:01:43.542Z,3471
2022-08-16T10:02:44.465Z,3448
2022-08-16T10:04:02.407Z,3441
2022-08-16T10:04:54.341Z,3417
2022-08-16T10:05:43.514Z,3414
2022-08-16T10:06:40.957Z,3412
2022-08-16T10:09:44.834Z,3483
2022-08-16T10:10:43.019Z,3505
2022-08-16T10:11:49.915Z,3512
2022-08-16T10:12:42.132Z,3512
2022-08-16T10:13:40.927Z,3549
2022-08-16T10:14:40.893Z,3537
2022-08-16T10:15:43.588Z,3556
2022-08-16T10:16:43.565Z,3534
2022-08-16T10:17:40.892Z,3591
2022-08-16T10:19:40.910Z,3576
2022-08-16T10:20:40.884Z,3583
2022-08-16T10:21:43.730Z,3525
2022-08-16T10:23:43.253Z,3390
2022-08-16T10:24:56.218Z,3375
2022-08-16T10:27:20.112Z,3399
2022-08-16T10:27:56.820Z,3323
2022-08-16T10:28:43.434Z,3314
2022-08-16T10:30:00.055Z,3289
2022-08-16T10:30:43.640Z,3304
2022-08-16T10:31:44.384Z,3282
2022-08-16T10:32:40.877Z,3257
2022-08-16T10:33:43.536Z,3269
2022-08-16T10:34:41.010Z,3269
2022-08-16T10:35:46.700Z,3336
2022-08-16T10:36:40.900Z,3380
2022-08-16T10:37:40.930Z,3409
2022-08-16T10:38:42.087Z,3448
2022-08-16T10:39:42.019Z,3446
2022-08-16T10:41:43.899Z,3448
2022-08-16T10:42:43.840Z,3461
2022-08-16T10:43:40.823Z,3446
2022-08-16T10:44:40.951Z,3456
2022-08-16T10:45:42.092Z,3625
2022-08-16T10:46:42.238Z,3684
2022-08-16T10:47:40.861Z,3576
2022-08-16T10:48:40.875Z,3571
2022-08-16T10:49:40.891Z,3640
2022-08-16T10:50:40.850Z,3559
2022-08-16T10:52:01.201Z,3552
2022-08-16T10:53:40.873Z,3561
2022-08-16T10:54:59.567Z,3537
2022-08-16T10:55:45.221Z,3517
2022-08-16T10:57:18.864Z,3507
2022-08-16T10:57:43.688Z,3483
2022-08-16T10:58:40.893Z,3404
2022-08-16T10:59:52.995Z,3370
2022-08-16T11:00:40.913Z,3343
2022-08-16T11:01:44.289Z,3372
2022-08-16T11:03:37.432Z,3355
2022-08-16T11:03:42.138Z,3382
2022-08-16T11:05:06.843Z,3355
2022-08-16T11:07:08.012Z,3345
2022-08-16T11:07:51.464Z,3399
2022-08-16T11:08:45.777Z,3377
2022-08-16T11:09:43.870Z,3336
2022-08-16T11:12:43.279Z,3279
2022-08-16T11:13:59.850Z,3392
2022-08-16T11:15:11.203Z,3395
2022-08-16T11:15:41.911Z,3448
2022-08-16T11:17:44.923Z,3510
2022-08-16T11:19:04.741Z,3534
2022-08-16T11:20:42.691Z,3623
2022-08-16T11:24:44.638Z,3777
2022-08-16T11:27:18.527Z,3748
2022-08-16T11:27:40.786Z,3733
2022-08-16T11:29:14.057Z,3664
2022-08-16T11:29:40.867Z,3650
2022-08-16T11:30:57.349Z,3495
2022-08-16T11:31:46.023Z,3397
2022-08-16T11:32:44.023Z,3414
2022-08-16T11:33:56.330Z,3377
2022-08-16T11:35:05.824Z,3316
2022-08-16T11:35:44.392Z,3345
2022-08-16T11:36:53.815Z,3314
2022-08-16T11:38:51.627Z,3294
2022-08-16T11:39:40.834Z,3299
2022-08-16T11:40:44.322Z,3345
2022-08-16T11:41:43.825Z,3358
2022-08-16T11:42:40.814Z,3422
2022-08-16T11:43:41.107Z,3534
2022-08-16T11:44:57.082Z,3610
2022-08-16T11:46:44.878Z,3633
2022-08-16T11:47:40.826Z,3588
2022-08-16T11:48:40.860Z,3520
2022-08-16T11:49:43.467Z,3517
2022-08-16T11:50:40.780Z,3525
2022-08-16T11:51:40.756Z,3613
2022-08-16T11:52:40.758Z,3571
2022-08-16T11:53:41.144Z,3564
2022-08-16T11:54:40.775Z,3537
2022-08-16T11:55:40.772Z,3507
2022-08-16T11:56:53.116Z,3458
2022-08-16T11:57:40.943Z,3446
2022-08-16T11:58:40.828Z,3409
2022-08-16T11:59:46.234Z,3426
2022-08-16T12:00:50.633Z,3436
2022-08-16T12:01:44.442Z,3431
2022-08-16T12:02:45.844Z,3468
2022-08-16T12:03:43.126Z,3451
2022-08-16T12:04:45.924Z,3446
2022-08-16T12:05:43.257Z,3404
2022-08-16T12:06:43.101Z,3350
2022-08-16T12:07:43.637Z,3333
2022-08-16T12:08:41.324Z,3257
2022-08-16T12:09:43.408Z,3301
2022-08-16T12:10:40.811Z,3279
2022-08-16T12:11:40.792Z,3269
2022-08-16T12:12:43.691Z,3250
2022-08-16T12:13:46.006Z,3193
2022-08-16T12:14:40.781Z,3147
2022-08-16T12:15:40.780Z,3235
2022-08-16T12:16:40.753Z,3345
2022-08-16T12:17:40.728Z,3468
2022-08-16T12:19:40.758Z,3422
2022-08-16T12:20:42.795Z,3446
2022-08-16T12:21:59.144Z,3478
2022-08-16T12:22:46.156Z,3412
2022-08-16T12:23:48.077Z,3390
2022-08-16T12:25:42.820Z,3429
2022-08-16T12:26:40.716Z,3436
2022-08-16T12:27:40.729Z,3431
2022-08-16T12:28:54.848Z,3485
2022-08-16T12:29:43.050Z,3468
2022-08-16T12:30:40.731Z,3478
2022-08-16T12:32:00.465Z,3512
2022-08-16T12:32:41.736Z,3402
2022-08-16T12:33:42.840Z,3370
2022-08-16T12:35:01.147Z,3318
2022-08-16T12:35:43.523Z,3318
2022-08-16T12:36:43.709Z,3277
2022-08-16T12:37:42.076Z,3186
2022-08-16T12:38:46.750Z,3191
2022-08-16T12:39:51.283Z,3179
2022-08-16T12:40:45.973Z,3144
2022-08-16T12:41:45.191Z,3240
2022-08-16T12:42:40.762Z,3257
2022-08-16T12:43:45.184Z,3282
2022-08-16T12:44:40.743Z,3260
2022-08-16T12:45:41.106Z,3345
2022-08-16T12:46:43.012Z,3426
2022-08-16T12:47:40.733Z,3458
2022-08-16T12:48:42.345Z,3500
2022-08-16T12:49:43.064Z,3566
2022-08-16T12:50:42.946Z,3652
2022-08-16T12:51:58.161Z,3733
2022-08-16T12:52:52.211Z,3821
2022-08-16T12:53:40.697Z,3888
2022-08-16T12:54:40.759Z,3915
2022-08-16T12:55:43.928Z,3939
2022-08-16T12:56:43.214Z,3910
2022-08-16T12:57:42.983Z,3691
2022-08-16T12:58:49.858Z,3645
2022-08-16T12:59:43.337Z,3581
2022-08-16T13:00:43.197Z,3480
2022-08-16T13:01:40.745Z,3426
2022-08-16T13:02:40.702Z,3368
2022-08-16T13:03:40.888Z,3304
2022-08-16T13:04:40.683Z,3306
2022-08-16T13:05:45.032Z,3245
2022-08-16T13:06:43.716Z,3223
2022-08-16T13:07:45.330Z,3257
2022-08-16T13:08:40.684Z,3188
2022-08-16T13:09:43.288Z,3252
2022-08-16T13:10:43.166Z,3245
2022-08-16T13:11:48.286Z,3279
2022-08-16T13:12:42.741Z,3311
2022-08-16T13:13:40.688Z,3370
2022-08-16T13:14:42.914Z,3345
2022-08-16T13:15:50.049Z,3385
2022-08-16T13:17:43.287Z,3368
2022-08-16T13:18:42.841Z,3377
2022-08-16T13:20:08.518Z,3360
2022-08-16T13:20:40.717Z,3250
2022-08-16T13:21:40.725Z,3255
2022-08-16T13:23:43.986Z,3301
2022-08-16T13:24:40.696Z,3206
2022-08-16T13:25:40.712Z,3181
2022-08-16T13:26:40.667Z,3294
2022-08-16T13:28:03.171Z,3392
2022-08-16T13:28:40.699Z,3382
2022-08-16T13:29:43.769Z,3419
2022-08-16T13:31:43.321Z,3345
2022-08-16T13:32:40.924Z,3318
2022-08-16T13:33:43.490Z,3311
2022-08-16T13:34:43.325Z,3291
2022-08-16T13:35:43.064Z,3196
2022-08-16T13:36:49.271Z,3193
2022-08-16T13:37:41.727Z,3198
2022-08-16T13:38:43.261Z,3193
2022-08-16T13:39:40.680Z,3191
2022-08-16T13:40:40.759Z,3191
2022-08-16T13:41:40.731Z,3193
2022-08-16T13:43:43.676Z,3183
2022-08-16T13:44:56.375Z,3196
2022-08-16T13:45:44.978Z,3203
2022-08-16T13:46:45.778Z,3181
2022-08-16T13:47:41.273Z,3201
2022-08-16T13:48:44.709Z,3183
2022-08-16T13:49:43.728Z,3183
2022-08-16T13:50:51.484Z,3161
2022-08-16T13:51:43.483Z,3041
2022-08-16T13:53:41.115Z,3083
2022-08-16T13:54:43.439Z,3080
2022-08-16T13:55:41.041Z,3107
2022-08-16T13:56:40.657Z,3105
2022-08-16T13:57:53.341Z,3031
2022-08-16T13:58:55.005Z,3110
2022-08-16T13:59:43.610Z,3115
2022-08-16T14:00:40.954Z,3110
2022-08-16T14:01:40.648Z,3142
2022-08-16T14:02:43.171Z,3112
2022-08-16T14:03:40.667Z,3026
2022-08-16T14:04:40.680Z,3100
2022-08-16T14:05:43.594Z,3051
2022-08-16T14:06:40.621Z,3007
2022-08-16T14:07:40.832Z,3076
2022-08-16T14:08:58.835Z,3073
2022-08-16T14:09:40.641Z,3125
2022-08-16T14:10:40.632Z,3260